sensor_id;sensor_type;location;lat;lon;timestamp;pressure;altitude;pressure_sealevel;temperature;humidity
38900;BME280;24660;43.238;26.576;2022-07-09T00:01:31;98993.72;;;18.16;92.15
38900;BME280;24660;43.238;26.576;2022-07-09T00:03:56;98997.91;;;18.03;93.85
38900;BME280;24660;43.238;26.576;2022-07-09T00:06:21;98986.34;;;18.09;94.07
38900;BME280;24660;43.238;26.576;2022-07-09T00:08:47;98994.91;;;17.98;94.78
38900;BME280;24660;43.238;26.576;2022-07-09T00:11:14;98993.63;;;18.09;95.30
38900;BME280;24660;43.238;26.576;2022-07-09T00:13:43;98991.06;;;18.30;92.47
38900;BME280;24660;43.238;26.576;2022-07-09T00:16:11;98998.16;;;18.31;92.32
38900;BME280;24660;43.238;26.576;2022-07-09T00:18:36;98991.31;;;18.21;91.75
38900;BME280;24660;43.238;26.576;2022-07-09T00:21:01;98988.66;;;17.98;93.50
38900;BME280;24660;43.238;26.576;2022-07-09T00:23:27;98994.38;;;17.80;93.75
38900;BME280;24660;43.238;26.576;2022-07-09T00:25:52;98998.06;;;18.39;93.60
38900;BME280;24660;43.238;26.576;2022-07-09T00:28:18;98993.59;;;18.32;91.33
38900;BME280;24660;43.238;26.576;2022-07-09T00:30:43;98994.84;;;18.74;88.72
38900;BME280;24660;43.238;26.576;2022-07-09T00:33:08;98998.06;;;18.54;88.95
38900;BME280;24660;43.238;26.576;2022-07-09T00:35:34;98998.50;;;18.28;90.43
38900;BME280;24660;43.238;26.576;2022-07-09T00:37:59;99005.31;;;18.24;91.72
38900;BME280;24660;43.238;26.576;2022-07-09T00:40:24;98997.53;;;18.06;92.64
38900;BME280;24660;43.238;26.576;2022-07-09T00:42:50;98997.66;;;18.28;92.65
38900;BME280;24660;43.238;26.576;2022-07-09T00:45:15;98998.13;;;18.17;93.19
38900;BME280;24660;43.238;26.576;2022-07-09T00:47:42;99006.34;;;18.23;92.84
38900;BME280;24660;43.238;26.576;2022-07-09T00:50:08;99003.50;;;18.69;90.74
38900;BME280;24660;43.238;26.576;2022-07-09T00:52:33;99004.19;;;19.01;88.71
38900;BME280;24660;43.238;26.576;2022-07-09T00:55:00;99003.31;;;18.71;85.93
38900;BME280;24660;43.238;26.576;2022-07-09T00:57:27;99003.41;;;19.07;84.92
38900;BME280;24660;43.238;26.576;2022-07-09T00:59:52;98998.59;;;19.23;83.18
38900;BME280;24660;43.238;26.576;2022-07-09T01:02:18;99006.34;;;19.26;82.89
38900;BME280;24660;43.238;26.576;2022-07-09T01:04:46;98995.50;;;18.90;82.85
38900;BME280;24660;43.238;26.576;2022-07-09T01:07:12;98999.13;;;18.68;84.42
38900;BME280;24660;43.238;26.576;2022-07-09T01:09:37;99001.38;;;18.94;84.36
38900;BME280;24660;43.238;26.576;2022-07-09T01:12:03;98997.81;;;18.93;84.82
38900;BME280;24660;43.238;26.576;2022-07-09T01:14:29;98999.25;;;18.75;84.76
38900;BME280;24660;43.238;26.576;2022-07-09T01:16:58;98995.97;;;18.64;86.43
38900;BME280;24660;43.238;26.576;2022-07-09T01:19:24;98995.41;;;18.69;85.85
38900;BME280;24660;43.238;26.576;2022-07-09T01:21:50;99001.75;;;18.76;84.18
38900;BME280;24660;43.238;26.576;2022-07-09T01:24:15;98997.56;;;18.74;83.54
38900;BME280;24660;43.238;26.576;2022-07-09T01:26:40;98993.25;;;18.79;83.60
38900;BME280;24660;43.238;26.576;2022-07-09T01:29:06;98994.66;;;18.75;83.49
38900;BME280;24660;43.238;26.576;2022-07-09T01:31:31;98998.41;;;18.74;82.46
38900;BME280;24660;43.238;26.576;2022-07-09T01:33:56;98992.78;;;18.90;81.33
38900;BME280;24660;43.238;26.576;2022-07-09T01:36:22;98997.78;;;19.08;79.64
38900;BME280;24660;43.238;26.576;2022-07-09T01:38:47;99002.53;;;19.21;78.01
38900;BME280;24660;43.238;26.576;2022-07-09T01:41:12;98999.06;;;19.27;76.63
38900;BME280;24660;43.238;26.576;2022-07-09T01:43:38;98998.38;;;19.40;73.81
38900;BME280;24660;43.238;26.576;2022-07-09T01:46:03;98999.53;;;19.67;71.59
38900;BME280;24660;43.238;26.576;2022-07-09T01:48:28;98996.34;;;19.84;69.86
38900;BME280;24660;43.238;26.576;2022-07-09T01:50:54;99000.03;;;19.98;68.91
38900;BME280;24660;43.238;26.576;2022-07-09T01:53:19;98995.38;;;20.13;68.66
38900;BME280;24660;43.238;26.576;2022-07-09T01:55:45;99000.19;;;19.90;68.95
38900;BME280;24660;43.238;26.576;2022-07-09T01:58:11;99001.25;;;20.17;67.17
38900;BME280;24660;43.238;26.576;2022-07-09T02:00:36;98998.34;;;20.19;67.62
38900;BME280;24660;43.238;26.576;2022-07-09T02:03:01;99000.72;;;20.28;66.18
38900;BME280;24660;43.238;26.576;2022-07-09T02:05:27;99003.25;;;20.30;65.50
38900;BME280;24660;43.238;26.576;2022-07-09T02:07:52;98997.59;;;20.31;65.70
38900;BME280;24660;43.238;26.576;2022-07-09T02:10:17;99001.28;;;20.45;64.63
38900;BME280;24660;43.238;26.576;2022-07-09T02:12:43;99003.25;;;20.58;64.16
38900;BME280;24660;43.238;26.576;2022-07-09T02:15:08;99005.94;;;20.30;65.16
38900;BME280;24660;43.238;26.576;2022-07-09T02:17:35;99018.63;;;20.44;65.17
38900;BME280;24660;43.238;26.576;2022-07-09T02:20:01;99008.31;;;20.39;64.98
38900;BME280;24660;43.238;26.576;2022-07-09T02:22:26;99013.81;;;20.46;65.09
38900;BME280;24660;43.238;26.576;2022-07-09T02:24:52;99010.97;;;20.33;66.56
38900;BME280;24660;43.238;26.576;2022-07-09T02:27:17;99015.19;;;19.86;68.94
38900;BME280;24660;43.238;26.576;2022-07-09T02:29:43;99010.66;;;19.72;69.54
38900;BME280;24660;43.238;26.576;2022-07-09T02:32:08;99020.78;;;19.84;69.67
38900;BME280;24660;43.238;26.576;2022-07-09T02:34:35;99006.63;;;19.32;71.91
38900;BME280;24660;43.238;26.576;2022-07-09T02:37:01;99017.84;;;19.14;74.08
38900;BME280;24660;43.238;26.576;2022-07-09T02:39:26;99019.41;;;19.38;72.71
38900;BME280;24660;43.238;26.576;2022-07-09T02:41:51;99020.69;;;19.42;72.70
38900;BME280;24660;43.238;26.576;2022-07-09T02:44:17;99022.41;;;19.58;72.22
38900;BME280;24660;43.238;26.576;2022-07-09T02:46:42;99023.00;;;19.23;74.42
38900;BME280;24660;43.238;26.576;2022-07-09T02:49:08;99019.00;;;19.05;76.04
38900;BME280;24660;43.238;26.576;2022-07-09T02:51:33;99019.09;;;19.11;75.81
38900;BME280;24660;43.238;26.576;2022-07-09T02:53:58;99021.81;;;18.96;74.09
38900;BME280;24660;43.238;26.576;2022-07-09T02:56:23;99030.41;;;19.15;72.48
38900;BME280;24660;43.238;26.576;2022-07-09T02:58:49;99029.41;;;18.86;75.65
38900;BME280;24660;43.238;26.576;2022-07-09T03:01:14;99029.09;;;18.96;75.88
38900;BME280;24660;43.238;26.576;2022-07-09T03:03:39;99033.50;;;18.82;77.73
38900;BME280;24660;43.238;26.576;2022-07-09T03:06:05;99034.78;;;19.31;75.94
38900;BME280;24660;43.238;26.576;2022-07-09T03:08:33;99036.16;;;19.26;74.70
38900;BME280;24660;43.238;26.576;2022-07-09T03:10:59;99038.88;;;19.26;75.27
38900;BME280;24660;43.238;26.576;2022-07-09T03:13:24;99045.97;;;19.13;74.38
38900;BME280;24660;43.238;26.576;2022-07-09T03:15:49;99040.38;;;18.99;76.96
38900;BME280;24660;43.238;26.576;2022-07-09T03:18:15;99047.50;;;19.01;76.57
38900;BME280;24660;43.238;26.576;2022-07-09T03:20:40;99040.50;;;18.77;77.70
38900;BME280;24660;43.238;26.576;2022-07-09T03:23:05;99044.31;;;19.12;77.04
38900;BME280;24660;43.238;26.576;2022-07-09T03:25:31;99043.47;;;18.82;77.38
38900;BME280;24660;43.238;26.576;2022-07-09T03:27:56;99042.16;;;19.07;76.38
38900;BME280;24660;43.238;26.576;2022-07-09T03:30:22;99041.88;;;19.17;75.73
38900;BME280;24660;43.238;26.576;2022-07-09T03:32:48;99050.50;;;19.06;76.61
38900;BME280;24660;43.238;26.576;2022-07-09T03:35:13;99046.81;;;19.43;74.69
38900;BME280;24660;43.238;26.576;2022-07-09T03:37:39;99048.56;;;19.36;76.82
38900;BME280;24660;43.238;26.576;2022-07-09T03:40:04;99059.81;;;19.18;77.20
38900;BME280;24660;43.238;26.576;2022-07-09T03:42:30;99052.72;;;19.32;77.03
38900;BME280;24660;43.238;26.576;2022-07-09T03:44:58;99060.81;;;19.46;75.89
38900;BME280;24660;43.238;26.576;2022-07-09T03:47:23;99063.72;;;19.81;73.42
38900;BME280;24660;43.238;26.576;2022-07-09T03:49:49;99067.91;;;19.83;74.74
38900;BME280;24660;43.238;26.576;2022-07-09T03:52:17;99061.00;;;19.60;75.99
38900;BME280;24660;43.238;26.576;2022-07-09T03:54:42;99061.50;;;19.70;75.76
38900;BME280;24660;43.238;26.576;2022-07-09T03:57:08;99066.78;;;20.14;76.36
38900;BME280;24660;43.238;26.576;2022-07-09T03:59:34;99065.16;;;19.98;77.16
38900;BME280;24660;43.238;26.576;2022-07-09T04:01:59;99067.84;;;20.41;74.90
38900;BME280;24660;43.238;26.576;2022-07-09T04:04:25;99065.31;;;20.39;75.59
38900;BME280;24660;43.238;26.576;2022-07-09T04:06:50;99068.06;;;20.18;76.04
38900;BME280;24660;43.238;26.576;2022-07-09T04:09:15;99072.19;;;20.35;75.44
38900;BME280;24660;43.238;26.576;2022-07-09T04:11:41;99073.28;;;20.20;76.37
38900;BME280;24660;43.238;26.576;2022-07-09T04:14:06;99064.78;;;20.01;77.92
38900;BME280;24660;43.238;26.576;2022-07-09T04:16:31;99071.41;;;20.20;74.43
38900;BME280;24660;43.238;26.576;2022-07-09T04:18:57;99068.97;;;20.74;72.53
38900;BME280;24660;43.238;26.576;2022-07-09T04:21:22;99076.72;;;20.50;72.60
38900;BME280;24660;43.238;26.576;2022-07-09T04:23:49;99068.03;;;20.61;70.01
38900;BME280;24660;43.238;26.576;2022-07-09T04:26:15;99076.47;;;21.07;67.51
38900;BME280;24660;43.238;26.576;2022-07-09T04:28:41;99077.59;;;21.19;67.24
38900;BME280;24660;43.238;26.576;2022-07-09T04:31:06;99081.94;;;21.42;63.62
38900;BME280;24660;43.238;26.576;2022-07-09T04:33:31;99075.19;;;21.38;63.50
38900;BME280;24660;43.238;26.576;2022-07-09T04:35:56;99081.72;;;21.43;63.71
38900;BME280;24660;43.238;26.576;2022-07-09T04:38:22;99076.44;;;21.35;63.47
38900;BME280;24660;43.238;26.576;2022-07-09T04:40:48;99072.22;;;21.74;63.37
38900;BME280;24660;43.238;26.576;2022-07-09T04:43:13;99076.09;;;21.51;63.74
38900;BME280;24660;43.238;26.576;2022-07-09T04:45:39;99073.22;;;21.66;63.47
38900;BME280;24660;43.238;26.576;2022-07-09T04:48:04;99075.97;;;21.79;63.00
38900;BME280;24660;43.238;26.576;2022-07-09T04:50:30;99075.88;;;21.46;61.62
38900;BME280;24660;43.238;26.576;2022-07-09T04:52:55;99067.91;;;21.10;63.84
38900;BME280;24660;43.238;26.576;2022-07-09T04:55:21;99067.44;;;21.28;63.27
38900;BME280;24660;43.238;26.576;2022-07-09T04:57:47;99068.72;;;21.04;63.30
38900;BME280;24660;43.238;26.576;2022-07-09T05:02:37;99070.44;;;21.53;63.31
38900;BME280;24660;43.238;26.576;2022-07-09T05:05:03;99072.53;;;21.44;62.98
38900;BME280;24660;43.238;26.576;2022-07-09T05:07:30;99077.81;;;21.24;64.10
38900;BME280;24660;43.238;26.576;2022-07-09T05:09:56;99068.66;;;21.80;62.70
38900;BME280;24660;43.238;26.576;2022-07-09T05:12:21;99067.09;;;22.45;60.37
38900;BME280;24660;43.238;26.576;2022-07-09T05:14:46;99067.78;;;21.66;61.47
38900;BME280;24660;43.238;26.576;2022-07-09T05:17:12;99073.28;;;21.86;61.54
38900;BME280;24660;43.238;26.576;2022-07-09T05:19:37;99071.00;;;22.03;61.56
38900;BME280;24660;43.238;26.576;2022-07-09T05:22:03;99081.13;;;22.48;59.42
38900;BME280;24660;43.238;26.576;2022-07-09T05:24:28;99073.53;;;21.98;61.59
38900;BME280;24660;43.238;26.576;2022-07-09T05:26:53;99078.41;;;22.29;60.37
38900;BME280;24660;43.238;26.576;2022-07-09T05:29:19;99081.53;;;22.52;60.17
38900;BME280;24660;43.238;26.576;2022-07-09T05:31:47;99082.41;;;22.52;60.60
38900;BME280;24660;43.238;26.576;2022-07-09T05:34:12;99086.38;;;22.30;60.38
38900;BME280;24660;43.238;26.576;2022-07-09T05:36:38;99083.19;;;22.07;61.25
38900;BME280;24660;43.238;26.576;2022-07-09T05:39:06;99079.25;;;22.82;59.94
38900;BME280;24660;43.238;26.576;2022-07-09T05:41:32;99078.19;;;22.76;59.30
38900;BME280;24660;43.238;26.576;2022-07-09T05:43:58;99076.66;;;23.27;59.29
38900;BME280;24660;43.238;26.576;2022-07-09T05:46:23;99075.19;;;23.18;58.23
38900;BME280;24660;43.238;26.576;2022-07-09T05:48:49;99074.59;;;23.16;58.73
38900;BME280;24660;43.238;26.576;2022-07-09T05:51:14;99076.66;;;23.20;58.84
38900;BME280;24660;43.238;26.576;2022-07-09T05:53:40;99078.72;;;23.38;58.78
38900;BME280;24660;43.238;26.576;2022-07-09T05:56:05;99077.44;;;23.34;59.44
38900;BME280;24660;43.238;26.576;2022-07-09T05:58:31;99075.41;;;23.23;58.76
38900;BME280;24660;43.238;26.576;2022-07-09T06:00:56;99079.66;;;23.63;57.20
38900;BME280;24660;43.238;26.576;2022-07-09T06:03:21;99078.84;;;24.01;57.25
38900;BME280;24660;43.238;26.576;2022-07-09T06:05:47;99077.16;;;23.55;58.14
38900;BME280;24660;43.238;26.576;2022-07-09T06:08:12;99083.53;;;23.94;57.55
38900;BME280;24660;43.238;26.576;2022-07-09T06:10:37;99082.56;;;24.07;57.68
38900;BME280;24660;43.238;26.576;2022-07-09T06:13:03;99083.00;;;24.10;55.74
38900;BME280;24660;43.238;26.576;2022-07-09T06:26:11;99066.88;;;24.34;58.06
38900;BME280;24660;43.238;26.576;2022-07-09T06:28:37;99071.16;;;24.23;58.52
38900;BME280;24660;43.238;26.576;2022-07-09T06:31:03;99075.34;;;23.94;58.43
38900;BME280;24660;43.238;26.576;2022-07-09T06:33:28;99076.94;;;24.40;57.78
38900;BME280;24660;43.238;26.576;2022-07-09T06:35:53;99067.56;;;24.54;57.18
38900;BME280;24660;43.238;26.576;2022-07-09T06:38:19;99068.06;;;24.69;56.49
38900;BME280;24660;43.238;26.576;2022-07-09T06:40:44;99067.72;;;24.59;57.14
38900;BME280;24660;43.238;26.576;2022-07-09T06:43:10;99069.97;;;24.87;56.72
38900;BME280;24660;43.238;26.576;2022-07-09T06:45:36;99069.19;;;25.05;56.40
38900;BME280;24660;43.238;26.576;2022-07-09T06:48:01;99073.44;;;25.01;56.37
38900;BME280;24660;43.238;26.576;2022-07-09T06:50:27;99075.34;;;25.19;56.33
38900;BME280;24660;43.238;26.576;2022-07-09T06:52:52;99072.78;;;25.42;55.77
38900;BME280;24660;43.238;26.576;2022-07-09T06:55:17;99069.22;;;25.41;56.01
38900;BME280;24660;43.238;26.576;2022-07-09T06:57:43;99068.31;;;25.11;55.91
38900;BME280;24660;43.238;26.576;2022-07-09T07:00:08;99056.13;;;24.64;56.79
38900;BME280;24660;43.238;26.576;2022-07-09T07:02:34;99060.22;;;24.98;57.91
38900;BME280;24660;43.238;26.576;2022-07-09T07:04:59;99058.22;;;24.62;58.36
38900;BME280;24660;43.238;26.576;2022-07-09T07:07:24;99061.38;;;25.27;56.91
38900;BME280;24660;43.238;26.576;2022-07-09T07:09:50;99061.59;;;25.43;56.76
38900;BME280;24660;43.238;26.576;2022-07-09T07:12:15;99062.38;;;25.14;56.64
38900;BME280;24660;43.238;26.576;2022-07-09T07:14:40;99065.72;;;25.34;56.56
38900;BME280;24660;43.238;26.576;2022-07-09T07:17:06;99049.59;;;25.63;54.95
38900;BME280;24660;43.238;26.576;2022-07-09T07:19:31;99069.03;;;25.55;56.21
38900;BME280;24660;43.238;26.576;2022-07-09T07:21:57;99062.56;;;25.67;55.63
38900;BME280;24660;43.238;26.576;2022-07-09T07:24:22;99062.13;;;25.52;56.36
38900;BME280;24660;43.238;26.576;2022-07-09T07:26:48;99055.91;;;25.63;54.94
38900;BME280;24660;43.238;26.576;2022-07-09T07:29:13;99069.28;;;26.01;55.18
38900;BME280;24660;43.238;26.576;2022-07-09T07:31:38;99057.59;;;25.94;53.46
38900;BME280;24660;43.238;26.576;2022-07-09T07:34:04;99064.50;;;25.97;54.27
38900;BME280;24660;43.238;26.576;2022-07-09T07:36:29;99067.41;;;26.14;52.68
38900;BME280;24660;43.238;26.576;2022-07-09T07:38:54;99054.69;;;26.31;52.24
38900;BME280;24660;43.238;26.576;2022-07-09T07:41:20;99053.91;;;26.42;51.82
38900;BME280;24660;43.238;26.576;2022-07-09T07:43:46;99060.97;;;26.85;51.00
38900;BME280;24660;43.238;26.576;2022-07-09T07:46:12;99056.91;;;26.41;49.99
38900;BME280;24660;43.238;26.576;2022-07-09T07:48:37;99055.63;;;26.13;51.27
38900;BME280;24660;43.238;26.576;2022-07-09T07:51:04;99053.84;;;26.60;50.68
38900;BME280;24660;43.238;26.576;2022-07-09T07:53:30;99059.53;;;26.59;50.09
38900;BME280;24660;43.238;26.576;2022-07-09T07:55:56;99058.81;;;26.87;50.63
38900;BME280;24660;43.238;26.576;2022-07-09T07:58:21;99057.31;;;27.66;48.69
38900;BME280;24660;43.238;26.576;2022-07-09T08:00:47;99064.47;;;27.56;48.17
38900;BME280;24660;43.238;26.576;2022-07-09T08:03:12;99067.56;;;27.71;48.50
38900;BME280;24660;43.238;26.576;2022-07-09T08:05:38;99062.22;;;27.64;48.30
38900;BME280;24660;43.238;26.576;2022-07-09T08:08:03;99064.69;;;27.26;47.87
38900;BME280;24660;43.238;26.576;2022-07-09T08:10:29;99057.00;;;27.39;48.95
38900;BME280;24660;43.238;26.576;2022-07-09T08:12:54;99063.50;;;28.02;47.95
38900;BME280;24660;43.238;26.576;2022-07-09T08:15:19;99052.38;;;27.16;49.26
38900;BME280;24660;43.238;26.576;2022-07-09T08:17:46;99056.13;;;27.62;46.95
38900;BME280;24660;43.238;26.576;2022-07-09T08:20:11;99056.94;;;27.23;48.21
38900;BME280;24660;43.238;26.576;2022-07-09T08:22:36;99050.50;;;27.69;48.40
38900;BME280;24660;43.238;26.576;2022-07-09T08:25:02;99052.63;;;27.15;47.49
38900;BME280;24660;43.238;26.576;2022-07-09T08:27:28;99053.47;;;27.15;48.33
38900;BME280;24660;43.238;26.576;2022-07-09T08:29:53;99046.84;;;27.40;47.59
38900;BME280;24660;43.238;26.576;2022-07-09T08:32:18;99035.47;;;27.08;48.76
38900;BME280;24660;43.238;26.576;2022-07-09T08:34:44;99051.44;;;27.34;47.89
38900;BME280;24660;43.238;26.576;2022-07-09T08:37:09;99045.34;;;28.01;45.74
38900;BME280;24660;43.238;26.576;2022-07-09T08:39:34;99039.06;;;28.17;45.96
38900;BME280;24660;43.238;26.576;2022-07-09T08:41:59;99045.41;;;28.51;46.16
38900;BME280;24660;43.238;26.576;2022-07-09T08:44:26;99040.81;;;27.78;46.76
38900;BME280;24660;43.238;26.576;2022-07-09T08:46:54;99040.06;;;27.83;47.89
38900;BME280;24660;43.238;26.576;2022-07-09T08:49:20;99035.25;;;28.35;46.97
38900;BME280;24660;43.238;26.576;2022-07-09T08:51:45;99037.25;;;28.39;45.83
38900;BME280;24660;43.238;26.576;2022-07-09T08:54:12;99028.25;;;28.27;46.88
38900;BME280;24660;43.238;26.576;2022-07-09T08:56:38;99037.59;;;28.60;46.55
38900;BME280;24660;43.238;26.576;2022-07-09T08:59:05;99034.75;;;28.38;46.37
38900;BME280;24660;43.238;26.576;2022-07-09T09:01:30;99020.41;;;28.86;45.08
38900;BME280;24660;43.238;26.576;2022-07-09T09:03:55;99032.06;;;28.93;46.01
38900;BME280;24660;43.238;26.576;2022-07-09T09:06:21;99034.59;;;29.17;44.87
38900;BME280;24660;43.238;26.576;2022-07-09T09:08:47;99025.66;;;28.54;46.32
38900;BME280;24660;43.238;26.576;2022-07-09T09:13:41;99019.56;;;28.02;46.63
38900;BME280;24660;43.238;26.576;2022-07-09T09:16:07;99020.97;;;28.21;46.83
38900;BME280;24660;43.238;26.576;2022-07-09T09:18:34;99014.75;;;28.76;45.32
38900;BME280;24660;43.238;26.576;2022-07-09T09:21:04;99022.19;;;28.14;46.90
38900;BME280;24660;43.238;26.576;2022-07-09T09:23:40;99018.53;;;28.08;45.79
38900;BME280;24660;43.238;26.576;2022-07-09T09:26:09;99023.25;;;27.79;47.49
38900;BME280;24660;43.238;26.576;2022-07-09T09:28:44;99008.06;;;28.22;46.36
38900;BME280;24660;43.238;26.576;2022-07-09T09:33:50;99027.41;;;28.77;44.80
38900;BME280;24660;43.238;26.576;2022-07-09T09:36:26;99022.41;;;28.41;44.18
38900;BME280;24660;43.238;26.576;2022-07-09T09:38:52;99021.56;;;28.57;44.01
38900;BME280;24660;43.238;26.576;2022-07-09T09:41:21;99015.44;;;29.27;42.41
38900;BME280;24660;43.238;26.576;2022-07-09T09:43:49;99014.88;;;29.03;41.84
38900;BME280;24660;43.238;26.576;2022-07-09T09:46:16;99009.75;;;28.39;41.98
38900;BME280;24660;43.238;26.576;2022-07-09T09:48:42;99009.44;;;27.91;43.03
38900;BME280;24660;43.238;26.576;2022-07-09T09:51:08;99007.50;;;28.36;41.95
38900;BME280;24660;43.238;26.576;2022-07-09T09:53:35;98995.88;;;28.01;42.93
38900;BME280;24660;43.238;26.576;2022-07-09T09:56:00;99003.41;;;28.73;42.04
38900;BME280;24660;43.238;26.576;2022-07-09T09:58:26;99007.34;;;29.15;41.71
38900;BME280;24660;43.238;26.576;2022-07-09T10:00:51;99000.84;;;29.05;42.11
38900;BME280;24660;43.238;26.576;2022-07-09T10:03:17;98998.31;;;29.20;40.83
38900;BME280;24660;43.238;26.576;2022-07-09T10:05:42;99003.28;;;29.23;42.53
38900;BME280;24660;43.238;26.576;2022-07-09T10:08:08;98998.00;;;29.60;39.75
38900;BME280;24660;43.238;26.576;2022-07-09T10:10:34;99000.19;;;29.85;39.40
38900;BME280;24660;43.238;26.576;2022-07-09T10:12:59;99002.13;;;29.41;40.39
38900;BME280;24660;43.238;26.576;2022-07-09T10:15:25;98992.06;;;29.73;40.25
38900;BME280;24660;43.238;26.576;2022-07-09T10:17:52;98994.25;;;29.27;42.15
38900;BME280;24660;43.238;26.576;2022-07-09T10:20:28;98988.22;;;28.70;42.66
38900;BME280;24660;43.238;26.576;2022-07-09T10:22:53;98989.84;;;29.05;41.36
38900;BME280;24660;43.238;26.576;2022-07-09T10:25:27;98987.75;;;29.34;40.54
38900;BME280;24660;43.238;26.576;2022-07-09T10:27:52;98986.69;;;29.40;39.61
38900;BME280;24660;43.238;26.576;2022-07-09T10:30:22;98980.66;;;29.16;40.35
38900;BME280;24660;43.238;26.576;2022-07-09T10:32:47;98977.94;;;29.43;39.36
38900;BME280;24660;43.238;26.576;2022-07-09T10:35:26;98981.31;;;29.99;39.42
38900;BME280;24660;43.238;26.576;2022-07-09T10:37:53;98970.38;;;29.82;38.90
38900;BME280;24660;43.238;26.576;2022-07-09T10:40:19;98973.47;;;29.85;39.61
38900;BME280;24660;43.238;26.576;2022-07-09T10:42:45;98965.69;;;30.09;38.99
38900;BME280;24660;43.238;26.576;2022-07-09T10:45:23;98974.06;;;30.20;38.91
38900;BME280;24660;43.238;26.576;2022-07-09T10:47:50;98970.88;;;30.33;38.73
38900;BME280;24660;43.238;26.576;2022-07-09T10:50:15;98980.47;;;29.98;38.69
38900;BME280;24660;43.238;26.576;2022-07-09T10:52:40;98972.38;;;30.13;38.82
38900;BME280;24660;43.238;26.576;2022-07-09T10:55:06;98971.06;;;31.06;37.70
38900;BME280;24660;43.238;26.576;2022-07-09T10:57:31;98971.75;;;30.06;38.03
38900;BME280;24660;43.238;26.576;2022-07-09T10:59:56;98975.06;;;30.08;38.29
38900;BME280;24660;43.238;26.576;2022-07-09T11:02:22;98966.16;;;30.01;38.06
38900;BME280;24660;43.238;26.576;2022-07-09T11:04:49;98967.06;;;29.80;37.95
38900;BME280;24660;43.238;26.576;2022-07-09T11:07:23;98973.44;;;30.44;38.24
38900;BME280;24660;43.238;26.576;2022-07-09T11:09:49;98960.47;;;30.45;38.10
38900;BME280;24660;43.238;26.576;2022-07-09T11:12:15;98967.13;;;30.49;38.45
38900;BME280;24660;43.238;26.576;2022-07-09T11:14:43;98956.53;;;30.73;37.42
38900;BME280;24660;43.238;26.576;2022-07-09T11:17:08;98960.19;;;30.84;36.87
38900;BME280;24660;43.238;26.576;2022-07-09T11:19:39;98960.75;;;30.86;36.94
38900;BME280;24660;43.238;26.576;2022-07-09T11:22:04;98966.56;;;31.52;35.86
38900;BME280;24660;43.238;26.576;2022-07-09T11:24:29;98974.31;;;31.65;35.19
38900;BME280;24660;43.238;26.576;2022-07-09T11:26:55;98965.66;;;30.73;37.02
38900;BME280;24660;43.238;26.576;2022-07-09T11:29:20;98962.84;;;30.68;36.50
38900;BME280;24660;43.238;26.576;2022-07-09T11:31:46;98956.84;;;30.39;36.86
38900;BME280;24660;43.238;26.576;2022-07-09T11:34:12;98954.50;;;30.58;37.05
38900;BME280;24660;43.238;26.576;2022-07-09T11:36:40;98955.69;;;29.71;38.44
38900;BME280;24660;43.238;26.576;2022-07-09T11:39:06;98964.44;;;30.22;37.90
38900;BME280;24660;43.238;26.576;2022-07-09T11:47:01;98950.53;;;29.80;38.85
38900;BME280;24660;43.238;26.576;2022-07-09T11:49:35;98953.03;;;29.11;39.98
38900;BME280;24660;43.238;26.576;2022-07-09T11:52:01;98939.50;;;29.04;40.63
38900;BME280;24660;43.238;26.576;2022-07-09T11:54:27;98929.28;;;29.26;39.58
38900;BME280;24660;43.238;26.576;2022-07-09T11:56:53;98943.03;;;29.26;39.17
38900;BME280;24660;43.238;26.576;2022-07-09T12:01:59;98928.63;;;28.76;40.22
38900;BME280;24660;43.238;26.576;2022-07-09T12:04:28;98929.69;;;28.91;40.83
38900;BME280;24660;43.238;26.576;2022-07-09T12:06:54;98933.63;;;29.44;39.80
38900;BME280;24660;43.238;26.576;2022-07-09T12:09:30;98930.91;;;28.84;39.91
38900;BME280;24660;43.238;26.576;2022-07-09T12:11:55;98922.88;;;28.77;40.19
38900;BME280;24660;43.238;26.576;2022-07-09T12:14:21;98920.34;;;29.14;40.23
38900;BME280;24660;43.238;26.576;2022-07-09T12:16:46;98926.09;;;29.13;40.28
38900;BME280;24660;43.238;26.576;2022-07-09T12:19:11;98925.72;;;28.65;40.24
38900;BME280;24660;43.238;26.576;2022-07-09T12:21:37;98914.63;;;28.99;39.24
38900;BME280;24660;43.238;26.576;2022-07-09T12:24:02;98917.78;;;28.86;38.53
38900;BME280;24660;43.238;26.576;2022-07-09T12:26:27;98920.75;;;29.01;38.54
38900;BME280;24660;43.238;26.576;2022-07-09T12:28:54;98919.13;;;29.05;38.63
38900;BME280;24660;43.238;26.576;2022-07-09T12:31:19;98920.50;;;30.10;37.07
38900;BME280;24660;43.238;26.576;2022-07-09T12:33:44;98924.59;;;32.62;33.45
38900;BME280;24660;43.238;26.576;2022-07-09T12:36:10;98925.19;;;32.18;33.15
38900;BME280;24660;43.238;26.576;2022-07-09T12:38:35;98923.38;;;33.03;33.50
38900;BME280;24660;43.238;26.576;2022-07-09T12:41:00;98913.03;;;33.29;32.52
38900;BME280;24660;43.238;26.576;2022-07-09T12:43:26;98904.13;;;34.16;31.86
38900;BME280;24660;43.238;26.576;2022-07-09T12:45:51;98907.00;;;34.64;31.12
38900;BME280;24660;43.238;26.576;2022-07-09T12:48:16;98913.09;;;35.32;29.83
38900;BME280;24660;43.238;26.576;2022-07-09T12:50:42;98914.50;;;33.66;32.54
38900;BME280;24660;43.238;26.576;2022-07-09T12:53:07;98900.28;;;32.23;34.22
38900;BME280;24660;43.238;26.576;2022-07-09T12:55:32;98892.25;;;30.72;36.19
38900;BME280;24660;43.238;26.576;2022-07-09T12:57:58;98894.50;;;30.01;38.13
38900;BME280;24660;43.238;26.576;2022-07-09T13:00:23;98889.50;;;29.66;38.77
38900;BME280;24660;43.238;26.576;2022-07-09T13:02:49;98893.75;;;29.25;38.43
38900;BME280;24660;43.238;26.576;2022-07-09T13:05:18;98897.00;;;29.44;38.23
38900;BME280;24660;43.238;26.576;2022-07-09T13:07:43;98888.13;;;29.42;37.86
38900;BME280;24660;43.238;26.576;2022-07-09T13:10:08;98870.88;;;29.46;39.27